createdAt,value
2022-12-22T00:04:09.368Z,96583.38
2022-12-22T00:14:32.506Z,96579.36
2022-12-22T00:24:55.899Z,96586.40
2022-12-22T00:35:19.435Z,96587.82
2022-12-22T00:45:42.141Z,96586.86
2022-12-22T00:56:05.573Z,96587.80
2022-12-22T01:06:29.887Z,96580.80
2022-12-22T01:16:52.775Z,96582.39
2022-12-22T01:27:16.341Z,96576.17
2022-12-22T01:37:38.788Z,96568.41
2022-12-22T01:48:01.599Z,96556.28
2022-12-22T01:58:40.787Z,96553.46
2022-12-22T02:09:11.249Z,96547.66
2022-12-22T02:19:52.759Z,96536.02
2022-12-22T02:30:20.705Z,96530.23
2022-12-22T02:41:06.812Z,96541.66
2022-12-22T02:51:43.773Z,96531.86
2022-12-22T03:02:06.930Z,96538.98
2022-12-22T03:12:30.152Z,96548.33
2022-12-22T03:22:52.755Z,96551.67
2022-12-22T03:32:57.161Z,96564.41
2022-12-22T03:43:20.247Z,96574.17
2022-12-22T03:53:24.630Z,96564.80
2022-12-22T04:03:28.443Z,96569.27
2022-12-22T04:13:32.766Z,96571.98
2022-12-22T04:23:36.851Z,96567.58
2022-12-22T04:33:40.631Z,96563.41
2022-12-22T04:43:44.410Z,96561.80
2022-12-22T04:53:48.569Z,96547.34
2022-12-22T05:03:52.505Z,96544.83
2022-12-22T05:13:58.667Z,96537.85
2022-12-22T05:24:06.883Z,96538.36
2022-12-22T05:34:10.691Z,96528.35
2022-12-22T05:44:14.863Z,96532.22
2022-12-22T05:54:19.040Z,96527.66
2022-12-22T06:04:22.958Z,96528.41
2022-12-22T06:14:27.109Z,96516.41
2022-12-22T06:24:41.609Z,96515.54
2022-12-22T06:34:46.488Z,96522.10
2022-12-22T06:44:51.106Z,96525.54
2022-12-22T06:54:55.144Z,96517.66
2022-12-22T07:04:59.228Z,96518.15
2022-12-22T07:15:04.110Z,96512.40
2022-12-22T07:25:08.440Z,96522.27
2022-12-22T07:35:12.377Z,96521.60
2022-12-22T07:45:19.507Z,96515.13
2022-12-22T07:55:25.436Z,96512.48
2022-12-22T08:05:29.497Z,96513.77
2022-12-22T08:15:33.558Z,96512.92
2022-12-22T08:25:37.540Z,96497.45
2022-12-22T08:35:42.215Z,96487.26
2022-12-22T08:45:46.185Z,96479.17
2022-12-22T08:55:57.224Z,96479.02
2022-12-22T09:06:02.891Z,96471.25
2022-12-22T09:16:08.703Z,96451.90
2022-12-22T09:26:15.284Z,96441.10
2022-12-22T09:36:23.359Z,96425.16
2022-12-22T09:46:32.182Z,96411.26
2022-12-22T09:56:36.820Z,96392.48
2022-12-22T10:07:17.646Z,96371.59
2022-12-22T10:17:25.896Z,96357.69
2022-12-22T10:27:34.237Z,96346.92
2022-12-22T10:37:41.857Z,96324.19
2022-12-22T10:47:51.616Z,96312.41
2022-12-22T10:58:11.493Z,96294.55
2022-12-22T11:08:20.945Z,96277.36
2022-12-22T11:18:36.068Z,96265.22
2022-12-22T11:29:24.980Z,96261.42
2022-12-22T11:39:43.686Z,96258.48
2022-12-22T11:51:01.754Z,96255.90
2022-12-22T12:01:20.484Z,96251.41
2022-12-22T12:11:53.102Z,96250.77
2022-12-22T12:22:05.431Z,96236.41
2022-12-22T12:32:10.259Z,96225.17
2022-12-22T12:42:47.264Z,96211.13
2022-12-22T12:52:52.262Z,96203.76
2022-12-22T13:02:58.253Z,96194.52
2022-12-22T13:13:02.753Z,96184.70
2022-12-22T13:23:13.588Z,96182.58
2022-12-22T13:33:24.813Z,96179.15
2022-12-22T13:43:31.500Z,96161.27
2022-12-22T13:54:08.524Z,96175.59
2022-12-22T14:04:14.046Z,96161.52
2022-12-22T14:14:26.359Z,96153.71
2022-12-22T14:24:38.454Z,96147.84
2022-12-22T14:34:54.730Z,96146.16
2022-12-22T14:44:59.955Z,96139.03
2022-12-22T14:55:06.802Z,96145.59
2022-12-22T15:05:37.684Z,96139.15
2022-12-22T15:15:41.854Z,96142.35
2022-12-22T15:25:46.244Z,96137.44
2022-12-22T15:35:50.314Z,96130.76
2022-12-22T15:45:54.782Z,96141.48
2022-12-22T15:55:59.284Z,96124.08
2022-12-22T16:06:03.853Z,96116.55
2022-12-22T16:16:08.940Z,96117.73
2022-12-22T16:26:20.915Z,96122.11
2022-12-22T16:36:25.084Z,96118.08
2022-12-22T16:46:29.110Z,96110.21
2022-12-22T16:56:33.703Z,96109.94
2022-12-22T17:06:38.620Z,96113.04
2022-12-22T17:16:42.503Z,96103.50
2022-12-22T17:26:47.084Z,96101.45
2022-12-22T17:36:51.939Z,96110.21
2022-12-22T17:46:55.930Z,96123.52
2022-12-22T17:57:04.611Z,96121.13
2022-12-22T18:07:08.736Z,96123.95
2022-12-22T18:17:35.847Z,96129.69
2022-12-22T18:27:40.977Z,96108.30
2022-12-22T18:37:45.788Z,96103.83
2022-12-22T18:47:52.043Z,96098.98
2022-12-22T18:57:57.744Z,96092.39
2022-12-22T19:08:02.106Z,96084.28
2022-12-22T19:18:07.738Z,96079.96
2022-12-22T19:28:40.426Z,96086.05
2022-12-22T19:38:50.536Z,96086.90
2022-12-22T19:48:57.535Z,96083.92
2022-12-22T19:59:05.349Z,96086.55
2022-12-22T20:09:10.578Z,96091.23
2022-12-22T20:19:17.405Z,96077.85
2022-12-22T20:29:25.930Z,96074.89
2022-12-22T20:39:30.876Z,96080.47
2022-12-22T20:49:35.562Z,96077.16
2022-12-22T20:59:41.986Z,96086.19
2022-12-22T21:09:47.961Z,96082.73
2022-12-22T21:19:52.271Z,96085.70
2022-12-22T21:29:57.571Z,96076.66
2022-12-22T21:40:02.571Z,96068.66
2022-12-22T21:50:07.419Z,96059.61
2022-12-22T22:00:14.396Z,96058.57
2022-12-22T22:10:22.857Z,96049.84
2022-12-22T22:20:31.449Z,96051.13
2022-12-22T22:30:35.308Z,96051.10
2022-12-22T22:40:39.791Z,96041.50
2022-12-22T22:50:43.559Z,96028.04
2022-12-22T23:00:47.821Z,96017.48
2022-12-22T23:10:51.959Z,96023.10
2022-12-22T23:21:00.743Z,96019.65
2022-12-22T23:31:05.114Z,96016.20
2022-12-22T23:41:13.000Z,96014.53
2022-12-22T23:51:17.013Z,96023.20
